createdAt,value
2019-03-13T00:01:19.578Z,62.63
2019-03-13T00:03:46.045Z,53.83
2019-03-13T00:06:12.956Z,58.70
2019-03-13T00:08:39.401Z,62.07
2019-03-13T00:11:05.903Z,58.73
2019-03-13T00:13:32.307Z,59.40
2019-03-13T00:15:58.987Z,48.77
2019-03-13T00:18:25.454Z,60.93
2019-03-13T00:20:51.978Z,55.70
2019-03-13T00:23:18.461Z,51.27
2019-03-13T00:25:44.956Z,55.40
2019-03-13T00:28:11.391Z,60.27
2019-03-13T00:30:38.395Z,54.60
2019-03-13T00:33:04.840Z,53.33
2019-03-13T00:35:31.301Z,51.80
2019-03-13T00:37:57.775Z,50.40
2019-03-13T00:40:24.280Z,57.30
2019-03-13T00:42:50.780Z,57.97
2019-03-13T00:45:17.252Z,53.73
2019-03-13T00:47:43.734Z,56.00
2019-03-13T00:50:31.266Z,47.60
2019-03-13T00:52:57.801Z,60.33
2019-03-13T00:55:24.272Z,51.07
2019-03-13T00:57:51.678Z,47.07
2019-03-13T01:00:32.310Z,51.57
2019-03-13T01:02:58.683Z,57.20
2019-03-13T01:05:27.047Z,51.17
2019-03-13T01:07:53.550Z,44.43
2019-03-13T01:10:20.100Z,50.80
2019-03-13T01:12:46.561Z,43.93
2019-03-13T01:15:14.142Z,48.13
2019-03-13T01:17:40.563Z,46.80
2019-03-13T01:20:07.776Z,48.13
2019-03-13T01:22:36.017Z,46.97
2019-03-13T01:25:02.581Z,46.93
2019-03-13T01:27:30.141Z,41.10
2019-03-13T01:29:56.527Z,43.20
2019-03-13T01:32:30.524Z,37.77
2019-03-13T01:35:04.654Z,41.80
2019-03-13T01:37:31.049Z,39.50
2019-03-13T01:39:57.414Z,39.97
2019-03-13T01:42:23.854Z,32.53
2019-03-13T01:44:51.378Z,32.17
2019-03-13T01:47:17.804Z,39.97
2019-03-13T01:49:44.319Z,32.40
2019-03-13T01:52:10.731Z,33.73
2019-03-13T01:54:37.164Z,32.53
2019-03-13T01:57:03.541Z,32.73
2019-03-13T01:59:29.944Z,32.93
2019-03-13T02:01:56.327Z,35.30
2019-03-13T02:04:22.758Z,32.60
2019-03-13T02:06:49.137Z,30.53
2019-03-13T02:09:15.551Z,30.93
2019-03-13T02:11:41.960Z,28.60
2019-03-13T02:14:08.376Z,33.80
2019-03-13T02:16:34.867Z,26.83
2019-03-13T02:19:01.283Z,30.00
2019-03-13T02:21:28.655Z,32.40
2019-03-13T02:23:55.075Z,29.00
2019-03-13T02:26:21.447Z,32.23
2019-03-13T02:28:47.869Z,33.00
2019-03-13T02:31:14.357Z,28.13
2019-03-13T02:33:40.827Z,29.73
2019-03-13T02:36:07.223Z,30.47
2019-03-13T02:38:33.649Z,27.73
2019-03-13T02:41:00.140Z,32.87
2019-03-13T02:43:26.683Z,25.83
2019-03-13T02:45:53.184Z,26.30
2019-03-13T02:48:19.637Z,25.43
2019-03-13T02:50:46.129Z,27.73
2019-03-13T02:53:12.620Z,27.97
2019-03-13T02:55:39.049Z,25.60
2019-03-13T02:58:05.609Z,30.33
2019-03-13T03:00:37.855Z,29.97
2019-03-13T03:03:06.422Z,29.93
2019-03-13T03:05:32.955Z,31.50
2019-03-13T03:07:59.385Z,35.03
2019-03-13T03:10:26.504Z,30.53
2019-03-13T03:12:52.839Z,32.00
2019-03-13T03:15:19.295Z,30.47
2019-03-13T03:17:45.653Z,29.73
2019-03-13T03:20:14.309Z,28.87
2019-03-13T03:22:40.730Z,28.50
2019-03-13T03:25:12.489Z,25.90
2019-03-13T03:27:38.956Z,24.60
2019-03-13T03:30:22.619Z,21.47
2019-03-13T03:32:49.193Z,27.80
2019-03-13T03:35:16.752Z,29.20
2019-03-13T03:37:43.220Z,20.83
2019-03-13T03:40:12.706Z,26.73
2019-03-13T03:42:39.135Z,25.80
2019-03-13T03:45:07.207Z,21.13
2019-03-13T03:47:33.677Z,19.50
2019-03-13T03:50:00.079Z,24.70
2019-03-13T03:52:26.535Z,26.20
2019-03-13T03:54:52.877Z,24.43
2019-03-13T03:57:19.206Z,25.00
2019-03-13T03:59:45.592Z,27.90
2019-03-13T04:02:11.932Z,20.47
2019-03-13T04:04:38.483Z,22.73
2019-03-13T04:07:05.051Z,25.87
2019-03-13T04:09:31.384Z,23.10
2019-03-13T04:11:57.696Z,23.53
2019-03-13T04:14:24.042Z,28.10
2019-03-13T04:16:50.505Z,23.30
2019-03-13T04:19:16.914Z,23.13
2019-03-13T04:21:43.350Z,23.30
2019-03-13T04:24:09.713Z,22.73
2019-03-13T04:26:36.109Z,22.40
2019-03-13T04:29:02.509Z,23.63
2019-03-13T04:31:28.892Z,20.80
2019-03-13T04:33:55.301Z,23.83
2019-03-13T04:36:21.748Z,22.37
2019-03-13T04:38:48.106Z,24.80
2019-03-13T04:41:14.462Z,21.10
2019-03-13T04:43:40.839Z,21.50
2019-03-13T04:46:07.137Z,23.33
2019-03-13T04:48:33.498Z,21.07
2019-03-13T04:50:59.837Z,26.17
2019-03-13T04:53:26.256Z,21.30
2019-03-13T04:55:52.840Z,19.60
2019-03-13T04:58:19.347Z,24.07
2019-03-13T05:00:45.777Z,22.23
2019-03-13T05:03:12.230Z,19.93
2019-03-13T05:05:43.142Z,23.77
2019-03-13T05:08:13.241Z,19.07
2019-03-13T05:10:40.108Z,21.40
2019-03-13T05:13:06.523Z,24.20
2019-03-13T05:15:33.928Z,21.83
2019-03-13T05:18:00.295Z,19.17
2019-03-13T05:20:26.675Z,21.83
2019-03-13T05:22:53.097Z,20.33
2019-03-13T05:25:19.515Z,19.63
2019-03-13T05:27:45.889Z,15.57
2019-03-13T05:30:12.319Z,17.70
2019-03-13T05:32:38.721Z,20.20
2019-03-13T05:35:06.030Z,14.90
2019-03-13T05:37:32.434Z,15.83
2019-03-13T05:39:58.805Z,12.90
2019-03-13T05:42:25.189Z,16.70
2019-03-13T05:44:51.555Z,14.47
2019-03-13T05:47:17.957Z,13.47
2019-03-13T05:49:44.376Z,16.77
2019-03-13T05:52:10.782Z,24.63
2019-03-13T05:54:37.243Z,15.57
2019-03-13T05:57:03.613Z,15.90
2019-03-13T05:59:30.049Z,10.63
2019-03-13T06:01:56.496Z,17.87
2019-03-13T06:04:22.936Z,13.57
2019-03-13T06:06:49.300Z,14.50
2019-03-13T06:09:15.727Z,15.80
2019-03-13T06:11:42.195Z,15.27
2019-03-13T06:14:08.621Z,15.53
2019-03-13T06:16:35.077Z,12.63
2019-03-13T06:19:01.486Z,12.87
2019-03-13T06:21:27.903Z,15.20
2019-03-13T06:23:54.356Z,16.67
2019-03-13T06:26:20.771Z,14.57
2019-03-13T06:28:47.151Z,13.00
2019-03-13T06:31:13.542Z,10.60
2019-03-13T06:33:39.975Z,14.40
2019-03-13T06:36:06.352Z,11.83
2019-03-13T06:38:32.779Z,14.30
2019-03-13T06:40:59.118Z,12.77
2019-03-13T06:43:26.618Z,9.50
2019-03-13T06:45:53.116Z,14.10
2019-03-13T06:48:19.539Z,10.50
2019-03-13T06:50:45.939Z,15.57
2019-03-13T06:53:12.382Z,12.47
2019-03-13T06:55:39.973Z,15.80
2019-03-13T06:58:06.379Z,10.70
2019-03-13T07:00:51.545Z,12.67
2019-03-13T07:03:36.854Z,13.17
2019-03-13T07:06:05.443Z,16.63
2019-03-13T07:08:33.804Z,15.83
2019-03-13T07:11:18.743Z,19.27
2019-03-13T07:14:04.144Z,17.93
2019-03-13T07:16:41.794Z,14.30
2019-03-13T07:19:12.621Z,13.57
2019-03-13T07:21:43.997Z,22.47
2019-03-13T07:24:27.421Z,13.67
2019-03-13T07:26:55.753Z,13.03
2019-03-13T07:29:32.831Z,18.30
2019-03-13T07:32:10.046Z,17.43
2019-03-13T07:34:43.544Z,16.57
2019-03-13T07:37:17.034Z,14.23
2019-03-13T07:40:03.528Z,17.93
2019-03-13T07:42:37.856Z,15.50
2019-03-13T07:45:10.979Z,17.13
2019-03-13T07:47:51.490Z,13.47
2019-03-13T07:50:19.750Z,17.37
2019-03-13T07:52:47.980Z,15.43
2019-03-13T07:55:16.310Z,16.20
2019-03-13T07:57:50.894Z,14.83
2019-03-13T08:00:28.510Z,15.63
2019-03-13T08:02:59.390Z,14.77
2019-03-13T08:05:30.208Z,20.10
2019-03-13T08:08:10.410Z,17.00
2019-03-13T08:10:38.762Z,15.77
2019-03-13T08:13:10.345Z,18.77
2019-03-13T08:15:57.086Z,16.20
2019-03-13T08:18:28.452Z,19.93
2019-03-13T08:20:59.547Z,17.87
2019-03-13T08:23:27.949Z,19.97
2019-03-13T08:25:56.307Z,14.03
2019-03-13T08:28:30.512Z,17.50
2019-03-13T08:30:58.823Z,19.27
2019-03-13T08:33:36.177Z,16.83
2019-03-13T08:36:21.507Z,20.57
2019-03-13T08:38:49.900Z,20.10
2019-03-13T08:41:21.017Z,29.23
2019-03-13T08:43:49.362Z,27.70
2019-03-13T08:46:26.473Z,15.70
2019-03-13T08:49:11.235Z,20.27
2019-03-13T08:51:42.268Z,16.77
2019-03-13T08:54:13.647Z,20.83
2019-03-13T08:56:58.703Z,18.87
2019-03-13T08:59:26.993Z,18.63
2019-03-13T09:01:55.320Z,18.67
2019-03-13T09:04:23.655Z,17.03
2019-03-13T09:06:57.805Z,20.17
2019-03-13T09:09:42.426Z,20.30
2019-03-13T09:12:27.126Z,20.73
2019-03-13T09:14:58.798Z,22.93
2019-03-13T09:17:27.287Z,22.83
2019-03-13T09:19:58.252Z,23.30
2019-03-13T09:22:33.180Z,19.10
2019-03-13T09:25:20.343Z,21.00
2019-03-13T09:28:00.851Z,24.23
2019-03-13T09:30:45.747Z,21.60
2019-03-13T09:33:23.379Z,20.50
2019-03-13T09:35:51.796Z,18.93
2019-03-13T09:38:23.508Z,23.40
2019-03-13T09:41:05.251Z,18.87
2019-03-13T09:43:39.672Z,17.03
2019-03-13T09:46:08.003Z,15.97
2019-03-13T09:48:42.080Z,17.33
2019-03-13T09:51:27.151Z,19.00
2019-03-13T09:54:01.706Z,15.60
2019-03-13T09:56:45.413Z,13.03
2019-03-13T09:59:22.631Z,14.77
2019-03-13T10:01:51.275Z,15.57
2019-03-13T10:04:28.645Z,13.40
2019-03-13T10:07:03.486Z,16.57
2019-03-13T10:09:48.377Z,14.70
2019-03-13T10:12:16.715Z,13.87
2019-03-13T10:14:50.769Z,14.30
2019-03-13T10:17:22.401Z,11.93
2019-03-13T10:19:53.772Z,10.20
2019-03-13T10:22:34.111Z,17.63
2019-03-13T10:25:20.919Z,14.37
2019-03-13T10:27:49.263Z,11.27
2019-03-13T10:30:20.114Z,12.00
2019-03-13T10:32:56.969Z,10.97
2019-03-13T10:35:28.396Z,15.60
2019-03-13T10:38:14.424Z,10.20
2019-03-13T10:40:48.768Z,10.17
2019-03-13T10:43:19.636Z,9.47
2019-03-13T10:45:50.941Z,10.47
2019-03-13T10:48:19.352Z,10.20
2019-03-13T10:51:06.115Z,14.33
2019-03-13T10:53:46.327Z,7.23
2019-03-13T10:56:14.642Z,7.33
2019-03-13T10:58:59.666Z,9.83
2019-03-13T11:01:33.548Z,11.57
2019-03-13T11:04:01.840Z,9.17
2019-03-13T11:06:54.382Z,5.50
2019-03-13T11:09:15.113Z,8.57
2019-03-13T11:11:43.508Z,8.30
2019-03-13T11:14:15.839Z,9.93
2019-03-13T11:16:50.987Z,15.70
2019-03-13T11:19:31.431Z,7.80
2019-03-13T11:21:59.581Z,5.37
2019-03-13T11:24:43.250Z,6.30
2019-03-13T11:27:28.153Z,4.37
2019-03-13T11:29:56.506Z,5.07
2019-03-13T11:32:24.859Z,3.47
2019-03-13T11:34:56.257Z,3.73
2019-03-13T11:37:24.576Z,5.87
2019-03-13T11:39:52.964Z,5.70
2019-03-13T11:42:30.547Z,9.43
2019-03-13T11:45:07.866Z,6.07
2019-03-13T11:47:53.093Z,3.77
2019-03-13T11:50:32.573Z,4.63
2019-03-13T11:53:18.778Z,5.50
2019-03-13T11:55:47.073Z,4.43
2019-03-13T11:58:15.471Z,5.97
2019-03-13T12:00:53.147Z,5.77
2019-03-13T12:03:21.448Z,9.37
2019-03-13T12:06:06.739Z,18.07
2019-03-13T12:08:52.110Z,37.63
2019-03-13T12:11:32.776Z,6.13
2019-03-13T12:14:01.148Z,5.47
2019-03-13T12:16:29.472Z,4.40
2019-03-13T12:19:00.479Z,5.67
2019-03-13T12:21:28.765Z,13.50
2019-03-13T12:24:02.967Z,7.90
2019-03-13T12:26:33.974Z,4.17
2019-03-13T12:29:11.548Z,4.37
2019-03-13T12:31:42.960Z,5.27
2019-03-13T12:34:29.464Z,7.47
2019-03-13T12:37:06.971Z,5.27
2019-03-13T12:39:52.336Z,6.20
2019-03-13T12:42:23.746Z,8.00
2019-03-13T12:44:55.141Z,7.60
2019-03-13T12:47:23.477Z,6.77
2019-03-13T12:49:54.588Z,8.63
2019-03-13T12:52:22.910Z,8.70
2019-03-13T12:55:02.352Z,11.63
2019-03-13T12:57:46.259Z,4.27
2019-03-13T13:00:36.275Z,4.67
2019-03-13T13:03:19.895Z,10.33
2019-03-13T13:05:48.216Z,6.97
2019-03-13T13:08:16.539Z,6.80
2019-03-13T13:11:01.816Z,5.43
2019-03-13T13:13:47.068Z,5.13
2019-03-13T13:16:15.401Z,5.83
2019-03-13T13:18:53.604Z,3.40
2019-03-13T13:21:20.121Z,3.50
2019-03-13T13:23:46.580Z,8.80
2019-03-13T13:26:13.065Z,4.70
2019-03-13T13:28:39.609Z,3.97
2019-03-13T13:31:06.132Z,7.03
2019-03-13T13:33:32.664Z,7.17
2019-03-13T13:35:59.060Z,5.67
2019-03-13T13:38:25.513Z,4.53
2019-03-13T13:40:51.920Z,5.57
2019-03-13T13:43:18.328Z,7.00
2019-03-13T13:45:46.163Z,7.30
2019-03-13T13:48:12.588Z,5.57
2019-03-13T13:50:39.009Z,5.27
2019-03-13T13:53:05.387Z,6.53
2019-03-13T13:55:31.809Z,3.13
2019-03-13T13:57:58.212Z,8.67
2019-03-13T14:00:24.667Z,5.70
2019-03-13T14:02:51.150Z,5.73
2019-03-13T14:05:17.595Z,4.93
2019-03-13T14:07:44.993Z,4.03
2019-03-13T14:10:12.036Z,6.47
2019-03-13T14:12:38.446Z,9.90
2019-03-13T14:15:08.084Z,3.90
2019-03-13T14:17:34.549Z,5.90
2019-03-13T14:20:00.982Z,3.17
2019-03-13T14:22:27.441Z,8.67
2019-03-13T14:24:53.870Z,5.67
2019-03-13T14:27:20.277Z,4.10
2019-03-13T14:29:47.303Z,11.10
2019-03-13T14:32:13.926Z,7.90
2019-03-13T14:34:40.382Z,5.00
2019-03-13T14:37:06.816Z,6.70
2019-03-13T14:39:33.244Z,5.13
2019-03-13T14:41:59.857Z,5.67
2019-03-13T14:44:26.506Z,4.10
2019-03-13T14:46:53.248Z,4.37
2019-03-13T14:49:19.805Z,4.80
2019-03-13T14:51:46.534Z,5.93
2019-03-13T14:54:13.017Z,6.07
2019-03-13T14:56:39.667Z,12.07
2019-03-13T14:59:06.210Z,6.63
2019-03-13T15:01:33.786Z,5.57
2019-03-13T15:04:00.307Z,6.33
2019-03-13T15:06:26.720Z,4.83
2019-03-13T15:08:53.135Z,6.00
2019-03-13T15:11:19.576Z,4.10
2019-03-13T15:13:46.151Z,5.00
2019-03-13T15:16:12.545Z,7.90
2019-03-13T15:18:38.992Z,6.13
2019-03-13T15:21:05.456Z,15.67
2019-03-13T15:23:31.865Z,7.63
2019-03-13T15:25:59.382Z,3.27
2019-03-13T15:28:27.000Z,4.30
2019-03-13T15:30:53.464Z,7.87
2019-03-13T15:33:19.941Z,8.90
2019-03-13T15:35:46.362Z,11.13
2019-03-13T15:38:12.812Z,4.13
2019-03-13T15:40:39.286Z,12.37
2019-03-13T15:43:05.728Z,6.90
2019-03-13T15:45:33.203Z,8.50
2019-03-13T15:47:59.731Z,7.23
2019-03-13T15:50:26.118Z,7.27
2019-03-13T15:52:53.160Z,5.40
2019-03-13T15:55:20.023Z,16.00
2019-03-13T15:57:50.706Z,26.30
2019-03-13T16:00:20.934Z,6.70
2019-03-13T16:02:47.358Z,6.23
2019-03-13T16:05:13.792Z,9.13
2019-03-13T16:07:40.173Z,8.53
2019-03-13T16:10:09.641Z,10.33
2019-03-13T16:12:36.015Z,12.63
2019-03-13T16:15:05.289Z,12.60
2019-03-13T16:17:31.722Z,8.40
2019-03-13T16:19:58.115Z,8.47
2019-03-13T16:22:24.814Z,8.10
2019-03-13T16:24:51.586Z,8.47
2019-03-13T16:27:18.085Z,20.73
2019-03-13T16:29:44.598Z,14.13
2019-03-13T16:32:13.026Z,10.47
2019-03-13T16:34:39.481Z,9.87
2019-03-13T16:37:05.941Z,11.27
2019-03-13T16:39:32.445Z,19.73
2019-03-13T16:41:58.846Z,24.13
2019-03-13T16:44:25.303Z,14.00
2019-03-13T16:46:51.661Z,14.97
2019-03-13T16:49:18.123Z,10.63
2019-03-13T16:51:44.557Z,8.10
2019-03-13T16:54:11.049Z,8.80
2019-03-13T16:56:37.535Z,8.53
2019-03-13T16:59:04.149Z,10.27
2019-03-13T17:01:31.742Z,9.73
2019-03-13T17:03:58.394Z,8.90
2019-03-13T17:06:24.945Z,11.80
2019-03-13T17:08:51.542Z,11.77
2019-03-13T17:11:18.108Z,6.80
2019-03-13T17:13:44.906Z,16.23
2019-03-13T17:16:11.577Z,13.57
2019-03-13T17:18:38.540Z,20.57
2019-03-13T17:21:06.293Z,17.23
2019-03-13T17:23:32.922Z,13.77
2019-03-13T17:25:59.449Z,17.63
2019-03-13T17:28:25.903Z,13.07
2019-03-13T17:30:52.286Z,16.13
2019-03-13T17:33:18.780Z,16.80
2019-03-13T17:35:45.159Z,15.03
2019-03-13T17:38:11.553Z,10.87
2019-03-13T17:40:37.924Z,12.97
2019-03-13T17:43:04.551Z,12.30
2019-03-13T17:45:31.147Z,22.37
2019-03-13T17:47:58.293Z,18.13
2019-03-13T17:50:25.172Z,12.83
2019-03-13T17:52:51.626Z,19.77
2019-03-13T17:55:21.020Z,21.43
2019-03-13T17:57:47.504Z,21.20
2019-03-13T18:00:22.613Z,17.53
2019-03-13T18:02:50.044Z,17.03
2019-03-13T18:05:16.705Z,14.77
2019-03-13T18:07:43.112Z,18.23
2019-03-13T18:10:15.573Z,12.93
2019-03-13T18:12:42.148Z,13.77
2019-03-13T18:15:10.390Z,28.50
2019-03-13T18:17:36.947Z,21.13
2019-03-13T18:20:07.212Z,24.53
2019-03-13T18:22:33.638Z,26.40
2019-03-13T18:25:00.275Z,13.43
2019-03-13T18:27:26.957Z,19.13
2019-03-13T18:29:53.421Z,23.37
2019-03-13T18:32:19.936Z,21.00
2019-03-13T18:34:46.408Z,14.53
2019-03-13T18:37:12.845Z,16.30
2019-03-13T18:39:39.186Z,15.80
2019-03-13T18:42:05.597Z,18.67
2019-03-13T18:44:32.007Z,19.87
2019-03-13T18:46:58.485Z,17.07
2019-03-13T18:49:24.949Z,23.57
2019-03-13T18:51:51.401Z,16.93
2019-03-13T18:54:18.828Z,20.13
2019-03-13T18:56:45.298Z,21.00
2019-03-13T18:59:11.837Z,18.37
2019-03-13T19:01:38.329Z,17.57
2019-03-13T19:04:04.778Z,16.97
2019-03-13T19:06:31.398Z,18.27
2019-03-13T19:08:57.897Z,19.90
2019-03-13T19:11:24.294Z,25.67
2019-03-13T19:13:50.796Z,13.40
2019-03-13T19:16:17.631Z,16.57
2019-03-13T19:18:44.114Z,16.30
2019-03-13T19:21:10.633Z,19.47
2019-03-13T19:23:37.094Z,19.17
2019-03-13T19:26:03.540Z,18.90
2019-03-13T19:28:31.236Z,17.10
2019-03-13T19:30:57.631Z,13.00
2019-03-13T19:33:23.997Z,19.93
2019-03-13T19:35:50.423Z,16.17
2019-03-13T19:38:16.784Z,22.40
2019-03-13T19:40:43.332Z,16.50
2019-03-13T19:43:09.704Z,19.20
2019-03-13T19:45:42.828Z,19.73
2019-03-13T19:48:09.286Z,17.57
2019-03-13T19:50:35.809Z,18.30
2019-03-13T19:53:02.743Z,13.93
2019-03-13T19:55:30.401Z,18.77
2019-03-13T19:57:56.907Z,18.70
2019-03-13T20:00:25.343Z,21.97
2019-03-13T20:02:59.958Z,22.37
2019-03-13T20:05:22.436Z,19.40
2019-03-13T20:07:49.030Z,20.63
2019-03-13T20:10:24.383Z,20.87
2019-03-13T20:12:51.127Z,20.63
2019-03-13T20:15:23.719Z,24.70
2019-03-13T20:17:50.196Z,18.93
2019-03-13T20:20:21.066Z,19.77
2019-03-13T20:22:51.208Z,17.03
2019-03-13T20:25:18.794Z,25.37
2019-03-13T20:27:45.631Z,19.20
2019-03-13T20:30:22.560Z,19.80
2019-03-13T20:32:49.489Z,24.67
2019-03-13T20:35:16.168Z,31.23
2019-03-13T20:37:42.722Z,40.07
2019-03-13T20:40:15.245Z,40.10
2019-03-13T20:42:42.070Z,37.00
2019-03-13T20:45:15.112Z,38.67
2019-03-13T20:47:42.020Z,29.27
2019-03-13T20:50:08.902Z,34.17
2019-03-13T20:52:35.518Z,26.83
2019-03-13T20:55:02.242Z,28.13
2019-03-13T20:57:28.985Z,34.67
2019-03-13T20:59:55.471Z,39.63
2019-03-13T21:02:22.129Z,25.93
2019-03-13T21:04:48.696Z,25.20
2019-03-13T21:07:15.127Z,38.83
2019-03-13T21:09:41.570Z,33.73
2019-03-13T21:12:07.970Z,32.27
2019-03-13T21:14:35.978Z,26.13
2019-03-13T21:17:02.794Z,27.40
2019-03-13T21:19:29.180Z,20.10
2019-03-13T21:21:55.621Z,26.80
2019-03-13T21:24:23.154Z,32.67
2019-03-13T21:26:49.636Z,29.03
2019-03-13T21:29:16.166Z,24.17
2019-03-13T21:31:42.573Z,31.27
2019-03-13T21:34:09.008Z,27.10
2019-03-13T21:36:35.045Z,29.37
2019-03-13T21:39:01.470Z,27.07
2019-03-13T21:41:29.851Z,22.97
2019-03-13T21:43:56.289Z,25.80
2019-03-13T21:46:22.734Z,31.40
2019-03-13T21:48:49.197Z,25.87
2019-03-13T21:51:16.590Z,25.83
2019-03-13T21:53:43.317Z,37.13
2019-03-13T21:56:09.740Z,24.87
2019-03-13T21:58:36.238Z,26.87
2019-03-13T22:01:02.713Z,23.53
2019-03-13T22:03:32.457Z,27.53
2019-03-13T22:05:57.421Z,21.73
2019-03-13T22:08:24.890Z,21.40
2019-03-13T22:10:51.295Z,21.33
2019-03-13T22:13:17.735Z,21.30
2019-03-13T22:15:44.147Z,20.10
2019-03-13T22:18:10.655Z,22.77
2019-03-13T22:20:37.087Z,19.20
2019-03-13T22:23:03.531Z,19.07
2019-03-13T22:25:29.974Z,20.60
2019-03-13T22:27:56.417Z,22.20
2019-03-13T22:30:23.837Z,18.13
2019-03-13T22:32:50.650Z,19.63
2019-03-13T22:35:17.093Z,21.13
2019-03-13T22:37:43.504Z,21.20
2019-03-13T22:40:12.088Z,21.73
2019-03-13T22:42:38.453Z,20.67
2019-03-13T22:45:07.938Z,22.33
2019-03-13T22:47:42.554Z,17.77
2019-03-13T22:50:07.512Z,16.93
2019-03-13T22:52:33.952Z,19.57
2019-03-13T22:55:00.517Z,16.57
2019-03-13T22:57:26.893Z,16.40
2019-03-13T22:59:53.308Z,18.67
2019-03-13T23:02:19.739Z,15.77
2019-03-13T23:04:46.170Z,13.77
2019-03-13T23:07:12.586Z,14.73
2019-03-13T23:09:39.006Z,13.57
2019-03-13T23:12:05.536Z,16.67
2019-03-13T23:14:32.045Z,14.27
2019-03-13T23:16:58.539Z,16.90
2019-03-13T23:19:27.755Z,15.50
2019-03-13T23:21:54.810Z,20.33
2019-03-13T23:24:21.314Z,17.37
2019-03-13T23:26:47.929Z,16.43
2019-03-13T23:29:15.504Z,17.90
2019-03-13T23:31:42.227Z,18.43
2019-03-13T23:34:08.723Z,14.97
2019-03-13T23:36:35.276Z,15.50
2019-03-13T23:39:02.052Z,13.20
2019-03-13T23:41:30.550Z,14.10
2019-03-13T23:43:57.155Z,15.83
2019-03-13T23:46:23.759Z,20.00
2019-03-13T23:48:50.401Z,13.67
2019-03-13T23:51:17.099Z,14.50
2019-03-13T23:53:43.830Z,15.23
2019-03-13T23:56:10.756Z,11.40
2019-03-13T23:58:37.299Z,14.33
